Time;durP1;ratioP1;P1;durP2;ratioP2;P2;SDS_P1;SDS_P2;PMS_P1;PMS_P2;Temp;Humidity;BMP_temperature;BMP_pressure;BME280_temperature;BME280_humidity;BME280_pressure;Samples;Min_cycle;Max_cycle;Signal;HPM_P1;HPM_P2
2023/01/18 00:01:34;;;;;;;3.60;3.20;;;;;;;9.29;70.10;95290.48;110150;1244;69856;-73
2023/01/18 00:04:04;;;;;;;3.40;2.70;;;;;;;9.26;70.51;95283.58;110105;1242;69203;-74
2023/01/18 00:06:33;;;;;;;4.40;2.90;;;;;;;9.21;71.60;95266.25;110098;1245;59760;-73
2023/01/18 00:09:02;;;;;;;4.10;2.90;;;;;;;9.14;72.14;95254.52;110229;1245;59734;-72
2023/01/18 00:11:31;;;;;;;4.00;3.20;;;;;;;9.06;72.51;95253.70;109894;1245;71096;-74
2023/01/18 00:14:01;;;;;;;3.80;3.00;;;;;;;9.00;73.18;95265.36;110077;1245;69193;-73
2023/01/18 00:16:31;;;;;;;4.80;3.30;;;;;;;8.93;74.08;95252.97;109925;1245;69266;-72
2023/01/18 00:19:01;;;;;;;3.50;3.10;;;;;;;8.85;74.71;95252.08;110150;1245;59705;-72
2023/01/18 00:21:30;;;;;;;3.30;2.80;;;;;;;8.84;73.38;95235.42;110117;1244;59681;-72
2023/01/18 00:23:59;;;;;;;4.20;2.90;;;;;;;8.86;73.76;95231.39;110117;1244;71956;-72
2023/01/18 00:26:28;;;;;;;4.70;3.10;;;;;;;8.85;74.33;95244.06;110115;1245;68537;-72
2023/01/18 00:28:58;;;;;;;4.00;3.50;;;;;;;8.84;74.54;95276.50;110144;1245;69365;-70
2023/01/18 00:31:29;;;;;;;4.20;3.20;;;;;;;8.82;74.23;95293.70;110095;1246;59774;-70
2023/01/18 00:33:59;;;;;;;4.20;3.00;;;;;;;8.82;74.39;95309.30;110101;1244;59668;-71
2023/01/18 00:36:30;;;;;;;4.10;3.20;;;;;;;8.82;74.57;95311.74;110098;1243;71365;-71
2023/01/18 00:39:00;;;;;;;3.50;3.10;;;;;;;8.80;74.25;95280.64;110077;1244;68055;-72
2023/01/18 00:41:30;;;;;;;4.10;2.40;;;;;;;8.80;74.73;95262.56;110140;1245;69292;-72
2023/01/18 00:43:59;;;;;;;3.40;3.10;;;;;;;8.79;75.25;95288.11;110189;1245;59680;-71
2023/01/18 00:46:29;;;;;;;3.80;3.00;;;;;;;8.77;75.06;95314.99;110148;1242;59703;-71
2023/01/18 00:48:58;;;;;;;5.70;3.40;;;;;;;8.72;75.68;95311.87;110114;1245;71409;-70
2023/01/18 00:51:28;;;;;;;4.50;3.30;;;;;;;8.69;75.98;95307.28;110081;1244;69265;-71
2023/01/18 00:53:58;;;;;;;3.70;3.00;;;;;;;8.64;76.13;95317.48;110134;1245;69695;-72
2023/01/18 00:56:27;;;;;;;4.40;3.60;;;;;;;8.59;76.28;95311.88;110054;1244;59747;-71
2023/01/18 00:58:57;;;;;;;4.10;3.10;;;;;;;8.59;76.19;95310.55;110081;1244;59681;-71
2023/01/18 01:01:27;;;;;;;;;;;;;;;8.58;76.36;95309.92;110081;1245;71427;-71
2023/01/18 01:06:46;;;;;;;4.10;3.00;;;;;;;8.59;76.56;95297.20;110074;1243;68653;-72
2023/01/18 01:09:19;;;;;;;4.30;3.00;;;;;;;8.57;77.07;95294.56;110197;1244;59748;-72
2023/01/18 01:26:10;;;;;;;4.50;3.60;;;;;;;8.36;78.36;95261.59;110164;1245;59672;-72
2023/01/18 01:28:44;;;;;;;4.90;3.70;;;;;;;8.26;79.59;95254.89;110059;1244;71971;-72
2023/01/18 01:31:15;;;;;;;5.80;4.90;;;;;;;8.14;79.56;95248.22;110089;1245;68524;-72
2023/01/18 01:33:49;;;;;;;5.00;4.10;;;;;;;8.03;80.46;95251.04;110120;1249;69878;-72
2023/01/18 01:36:24;;;;;;;4.40;3.70;;;;;;;7.93;80.63;95258.95;110069;1244;59757;-72
2023/01/18 01:38:54;;;;;;;4.80;3.80;;;;;;;7.81;82.28;95259.70;110127;1244;59731;-72
2023/01/18 01:41:30;;;;;;;4.30;3.50;;;;;;;7.74;82.62;95269.86;110107;1244;69483;-72
2023/01/18 01:44:32;;;;;;;6.00;3.70;;;;;;;7.67;82.74;95276.55;110066;1243;69080;-72
2023/01/18 01:47:08;;;;;;;4.20;3.40;;;;;;;7.58;84.54;95265.36;110080;1244;69120;-72
2023/01/18 01:49:45;;;;;;;4.40;3.40;;;;;;;7.52;84.76;95270.20;110113;1245;59743;-72
2023/01/18 01:52:22;;;;;;;6.40;3.90;;;;;;;7.47;85.45;95253.41;110091;1244;59634;-72
2023/01/18 01:55:20;;;;;;;4.80;3.70;;;;;;;7.46;84.78;95260.16;110114;1245;72111;-72
2023/01/18 01:58:00;;;;;;;7.70;3.90;;;;;;;7.55;84.01;95267.90;110124;1243;69540;-72
2023/01/18 02:00:31;;;;;;;4.30;3.30;;;;;;;7.65;83.61;95252.41;110095;1244;68503;-72
2023/01/18 02:03:07;;;;;;;5.60;3.70;;;;;;;7.71;82.52;95253.12;110080;1244;59670;-71
2023/01/18 02:05:44;;;;;;;4.40;3.30;;;;;;;7.88;81.17;95251.09;110085;1245;59684;-72
2023/01/18 02:08:21;;;;;;;3.80;3.00;;;;;;;8.07;79.96;95239.08;110065;1244;71233;-72
2023/01/18 02:10:51;;;;;;;4.60;3.50;;;;;;;8.19;80.31;95242.02;110131;1244;69214;-71
2023/01/18 02:13:21;;;;;;;;;;;;;;;8.24;80.08;95248.17;110097;1243;67495;-71
2023/01/18 02:16:19;;;;;;;4.90;4.00;;;;;;;8.25;79.72;95245.41;109809;1245;60192;-69
2023/01/18 02:19:23;;;;;;;5.60;3.70;;;;;;;8.30;79.25;95254.83;110074;1245;59701;-70
2023/01/18 02:22:13;;;;;;;5.20;3.40;;;;;;;8.33;78.89;95251.63;110118;1245;71488;-70
2023/01/18 02:25:11;;;;;;;4.30;3.50;;;;;;;8.34;79.11;95254.15;110061;1245;69011;-70
2023/01/18 02:27:54;;;;;;;4.10;3.30;;;;;;;8.32;79.19;95253.77;109815;1244;69244;-71
2023/01/18 02:30:39;;;;;;;4.80;3.40;;;;;;;8.30;79.31;95256.61;110075;1244;59676;-72
2023/01/18 02:33:19;;;;;;;5.60;3.60;;;;;;;8.28;79.54;95260.47;110093;1245;59678;-71
2023/01/18 02:35:55;;;;;;;4.70;3.50;;;;;;;8.25;79.07;95260.05;110122;1245;71434;-71
2023/01/18 02:38:40;;;;;;;4.60;3.20;;;;;;;8.27;78.80;95263.48;110119;1245;69265;-71
2023/01/18 02:41:20;;;;;;;4.70;3.20;;;;;;;8.28;78.77;95260.61;110081;1252;69882;-71
2023/01/18 02:46:45;;;;;;;4.10;3.10;;;;;;;8.30;78.66;95235.20;110108;1244;60095;-71
2023/01/18 02:49:21;;;;;;;4.30;3.60;;;;;;;8.32;78.47;95235.33;110107;1245;70859;-71
2023/01/18 02:52:03;;;;;;;4.90;3.40;;;;;;;8.39;78.17;95217.70;110119;1243;69226;-71
2023/01/18 02:54:38;;;;;;;3.90;3.20;;;;;;;8.44;77.76;95225.55;110128;1244;69476;-70
2023/01/18 02:57:14;;;;;;;4.50;3.40;;;;;;;8.46;77.56;95231.92;110091;1245;59685;-70
2023/01/18 02:59:54;;;;;;;5.40;3.30;;;;;;;8.48;77.48;95231.48;110138;1244;59638;-71
2023/01/18 03:02:25;;;;;;;;;;;;;;;8.46;77.51;95234.39;110178;1245;70851;-71
2023/01/18 03:04:56;;;;;;;4.60;3.30;;;;;;;8.44;77.74;95232.12;110115;1246;69231;-71
2023/01/18 03:07:39;;;;;;;3.90;3.00;;;;;;;8.43;77.92;95230.16;110141;1245;69330;-71
2023/01/18 03:10:13;;;;;;;4.60;3.30;;;;;;;8.42;77.48;95219.00;110113;1245;59748;-71
2023/01/18 03:13:08;;;;;;;4.10;3.20;;;;;;;8.44;77.42;95220.37;110116;1245;59689;-71
2023/01/18 03:15:54;;;;;;;4.50;3.40;;;;;;;8.42;77.74;95217.63;110106;1245;71389;-71
2023/01/18 03:18:33;;;;;;;4.00;3.00;;;;;;;8.40;77.82;95216.44;110081;1245;68115;-71
2023/01/18 03:21:07;;;;;;;4.90;3.10;;;;;;;8.40;77.49;95208.20;110078;1245;70361;-71
2023/01/18 03:23:41;;;;;;;3.80;3.30;;;;;;;8.41;77.38;95209.19;110135;1248;59803;-71
2023/01/18 03:26:15;;;;;;;5.00;3.10;;;;;;;8.44;77.16;95207.20;110091;1245;59686;-70
2023/01/18 03:34:56;;;;;;;3.60;2.40;;;;;;;8.65;76.06;95210.47;110218;1244;68362;-73
2023/01/18 03:37:39;;;;;;;4.50;2.70;;;;;;;8.73;74.99;95208.27;110223;1245;60324;-73
2023/01/18 03:40:16;;;;;;;3.80;2.60;;;;;;;8.90;73.89;95214.04;110193;1246;59670;-73
2023/01/18 03:43:18;;;;;;;3.30;2.40;;;;;;;9.00;73.24;95212.65;110163;1244;71513;-70
2023/01/18 03:45:52;;;;;;;5.60;2.60;;;;;;;9.21;72.11;95223.41;110069;1244;69813;-71
2023/01/18 03:48:22;;;;;;;2.90;2.30;;;;;;;9.30;72.41;95223.34;110108;1245;69008;-71
2023/01/18 03:51:13;;;;;;;3.20;2.20;;;;;;;9.35;72.27;95225.46;110072;1244;59723;-71
2023/01/18 03:54:26;;;;;;;3.60;2.20;;;;;;;9.37;71.78;95227.48;110101;1247;59692;-72
2023/01/18 03:57:06;;;;;;;2.90;2.40;;;;;;;9.37;72.46;95220.73;109964;1252;71570;-71
2023/01/18 03:59:38;;;;;;;3.10;2.50;;;;;;;9.34;72.63;95227.61;110077;1251;69259;-71
2023/01/18 04:02:09;;;;;;;3.30;2.40;;;;;;;9.32;72.51;95227.85;110082;1244;69397;-70
2023/01/18 04:04:39;;;;;;;3.40;2.50;;;;;;;9.29;72.43;95232.64;110071;1244;59739;-71
2023/01/18 04:07:09;;;;;;;3.10;2.40;;;;;;;9.28;72.19;95243.70;110059;1241;59757;-70
2023/01/18 04:09:39;;;;;;;3.40;2.50;;;;;;;9.30;72.02;95246.81;110115;1246;70932;-69
2023/01/18 04:12:10;;;;;;;4.00;3.20;;;;;;;9.34;71.33;95251.30;110124;1246;68352;-71
2023/01/18 04:14:39;;;;;;;5.70;3.30;;;;;;;9.41;70.72;95250.00;110143;1245;68554;-71
2023/01/18 04:17:09;;;;;;;4.40;2.70;;;;;;;9.45;70.84;95247.33;110175;1248;59738;-70
2023/01/18 04:19:40;;;;;;;3.80;2.50;;;;;;;9.49;70.77;95257.58;110165;1242;59689;-71
2023/01/18 04:22:09;;;;;;;4.20;2.30;;;;;;;9.55;69.97;95251.73;110121;1245;71383;-70
2023/01/18 04:24:39;;;;;;;3.30;2.10;;;;;;;9.66;69.05;95253.12;110078;1244;68151;-70
2023/01/18 04:27:09;;;;;;;3.50;2.20;;;;;;;9.72;69.26;95255.52;110080;1247;68680;-72
2023/01/18 04:29:39;;;;;;;2.80;2.30;;;;;;;9.73;69.24;95255.41;110113;1246;59668;-70
2023/01/18 04:32:09;;;;;;;;;;;;;;;9.73;69.61;95253.71;110132;1246;59728;-70
2023/01/18 04:34:39;;;;;;;3.30;2.20;;;;;;;9.72;69.36;95257.64;110064;1245;70843;-70
2023/01/18 04:37:09;;;;;;;3.80;2.10;;;;;;;9.74;68.89;95261.20;110074;1244;69949;-68
2023/01/18 04:39:39;;;;;;;2.70;2.20;;;;;;;9.78;68.94;95261.17;110061;1242;68345;-69
2023/01/18 04:42:08;;;;;;;3.40;2.30;;;;;;;9.80;68.77;95255.70;110087;1246;59693;-71
2023/01/18 04:44:37;;;;;;;2.20;2.00;;;;;;;9.84;68.60;95258.28;110080;1245;59732;-70
2023/01/18 04:47:07;;;;;;;3.80;2.50;;;;;;;9.87;68.46;95252.63;110092;1245;70507;-70
2023/01/18 04:49:37;;;;;;;3.90;2.40;;;;;;;9.87;68.40;95258.69;110075;1245;68519;-71
2023/01/18 04:52:08;;;;;;;5.10;2.60;;;;;;;9.86;68.48;95260.84;110049;1245;68341;-72
2023/01/18 04:54:37;;;;;;;3.30;2.70;;;;;;;9.81;68.77;95269.39;110046;1245;59678;-72
2023/01/18 04:57:07;;;;;;;3.40;2.30;;;;;;;9.80;68.50;95268.81;110095;1245;59739;-70
2023/01/18 04:59:38;;;;;;;2.70;2.30;;;;;;;9.79;68.58;95272.56;110100;1245;71205;-70
2023/01/18 05:02:07;;;;;;;2.90;2.10;;;;;;;9.77;68.74;95277.95;110110;1245;68342;-72
2023/01/18 05:04:37;;;;;;;2.70;2.30;;;;;;;9.76;68.99;95287.17;110081;1245;68527;-72
2023/01/18 05:07:07;;;;;;;;;;;;;;;9.75;68.92;95287.73;110103;1246;59775;-70
2023/01/18 05:09:36;;;;;;;3.00;2.00;;;;;;;9.75;68.75;95290.52;110085;1243;59696;-71
2023/01/18 05:12:05;;;;;;;2.70;2.10;;;;;;;9.78;68.46;95298.03;110114;1245;72054;-70
2023/01/18 05:14:34;;;;;;;3.70;2.30;;;;;;;9.83;68.27;95298.56;110060;1241;69783;-71
2023/01/18 05:17:03;;;;;;;3.80;3.00;;;;;;;9.88;68.11;95298.01;110050;1246;68343;-71
2023/01/18 05:19:33;;;;;;;2.80;2.30;;;;;;;9.91;67.88;95292.86;110104;1244;59824;-71
2023/01/18 05:22:03;;;;;;;;;;;;;;;9.92;67.93;95289.27;110082;1244;59686;-72
2023/01/18 05:24:34;;;;;;;4.10;2.40;;;;;;;9.90;68.13;95284.05;110096;1246;71004;-71
2023/01/18 05:27:03;;;;;;;3.10;2.10;;;;;;;9.90;67.45;95278.17;110146;1246;69137;-71
2023/01/18 05:29:33;;;;;;;2.40;2.00;;;;;;;9.96;67.46;95279.79;110091;1244;69176;-73
2023/01/18 05:32:05;;;;;;;3.00;2.30;;;;;;;10.03;67.32;95288.20;110065;1245;59761;-72
2023/01/18 05:34:34;;;;;;;4.10;3.00;;;;;;;10.06;67.30;95294.06;110065;1244;59703;-71
2023/01/18 05:37:04;;;;;;;2.70;2.10;;;;;;;10.07;67.27;95299.68;110079;1244;70680;-70
2023/01/18 05:39:33;;;;;;;;;;;;;;;10.08;67.10;95301.55;110091;1243;69008;-71
2023/01/18 05:42:04;;;;;;;2.20;2.00;;;;;;;10.10;66.99;95299.11;110136;1252;68378;-71
2023/01/18 05:44:33;;;;;;;3.50;2.60;;;;;;;10.10;66.98;95294.70;110090;1244;59747;-70
2023/01/18 05:47:02;;;;;;;2.80;2.00;;;;;;;10.11;67.29;95293.04;110125;1245;59636;-70
2023/01/18 05:49:32;;;;;;;2.90;2.00;;;;;;;10.14;66.89;95290.23;110088;1245;69834;-70
2023/01/18 05:52:01;;;;;;;4.80;2.40;;;;;;;10.15;67.26;95284.45;110097;1243;69426;-70
2023/01/18 05:54:30;;;;;;;4.00;2.70;;;;;;;10.14;67.40;95283.19;110008;1247;68254;-70
2023/01/18 05:57:00;;;;;;;5.40;3.10;;;;;;;10.11;67.69;95286.80;110045;1243;59751;-71
2023/01/18 05:59:29;;;;;;;3.30;2.20;;;;;;;10.06;67.79;95289.73;110102;1245;60089;-70
2023/01/18 06:01:58;;;;;;;3.50;2.20;;;;;;;10.03;68.19;95281.73;110120;1244;71957;-70
2023/01/18 06:04:27;;;;;;;4.30;2.60;;;;;;;10.01;68.48;95281.79;110072;1246;69217;-70
2023/01/18 06:06:56;;;;;;;4.60;2.70;;;;;;;9.99;68.63;95276.02;110063;1244;69773;-70
2023/01/18 06:09:25;;;;;;;3.80;2.20;;;;;;;9.95;69.18;95280.43;110100;1244;59728;-70
2023/01/18 06:11:53;;;;;;;3.90;2.70;;;;;;;9.92;69.33;95280.77;110045;1245;59635;-71
2023/01/18 06:14:23;;;;;;;4.60;2.70;;;;;;;9.87;69.79;95276.77;110144;1244;71405;-71
2023/01/18 06:16:51;;;;;;;3.70;2.40;;;;;;;9.84;70.28;95276.55;110069;1244;69029;-70
2023/01/18 06:19:20;;;;;;;3.90;2.50;;;;;;;9.81;70.52;95278.30;110131;1246;70207;-70
2023/01/18 06:21:50;;;;;;;3.60;2.80;;;;;;;9.76;70.93;95279.85;110081;1245;59689;-71
2023/01/18 06:24:19;;;;;;;2.70;2.20;;;;;;;9.73;71.25;95282.72;110097;1244;59698;-72
2023/01/18 06:26:48;;;;;;;4.60;2.60;;;;;;;9.72;71.59;95291.76;110101;1245;71342;-69
2023/01/18 06:29:17;;;;;;;2.70;2.40;;;;;;;9.71;71.81;95296.70;110062;1245;69997;-70
2023/01/18 06:31:46;;;;;;;3.80;2.50;;;;;;;9.72;72.14;95294.86;110091;1245;69792;-70
2023/01/18 06:34:15;;;;;;;3.90;2.70;;;;;;;9.72;72.37;95306.33;110092;1244;59767;-72
2023/01/18 06:36:44;;;;;;;3.90;3.00;;;;;;;9.72;72.52;95308.79;110095;1245;59688;-74
2023/01/18 06:39:13;;;;;;;4.20;3.30;;;;;;;9.74;72.69;95310.83;110100;1244;70596;-73
2023/01/18 06:41:41;;;;;;;6.70;4.30;;;;;;;9.75;72.99;95311.25;110102;1245;68758;-71
2023/01/18 06:44:11;;;;;;;2.90;2.50;;;;;;;9.77;72.99;95320.91;110125;1245;69101;-73
2023/01/18 06:46:43;;;;;;;4.50;2.10;;;;;;;9.85;72.83;95316.69;110133;1244;59740;-71
2023/01/18 06:49:13;;;;;;;3.20;1.80;;;;;;;9.93;72.85;95316.16;110161;1243;60088;-69
2023/01/18 06:51:42;;;;;;;3.70;2.40;;;;;;;9.98;72.90;95319.63;110084;1246;71962;-71
2023/01/18 06:54:11;;;;;;;3.50;2.20;;;;;;;10.01;73.05;95319.21;110104;1245;68784;-73
2023/01/18 06:56:40;;;;;;;3.40;2.50;;;;;;;10.02;73.29;95332.95;110113;1246;69852;-72
2023/01/18 06:59:09;;;;;;;4.00;2.50;;;;;;;10.03;73.60;95340.40;110100;1244;59705;-69
2023/01/18 07:01:38;;;;;;;3.40;2.10;;;;;;;10.02;73.77;95339.73;110131;1245;59685;-72
2023/01/18 07:04:07;;;;;;;2.90;2.00;;;;;;;10.02;74.25;95341.37;110139;1244;72242;-71
2023/01/18 07:06:36;;;;;;;3.60;2.40;;;;;;;9.98;74.91;95341.69;110126;1244;69264;-72
2023/01/18 07:09:06;;;;;;;2.80;2.00;;;;;;;9.92;75.44;95343.73;110264;1245;69856;-72
2023/01/18 07:11:36;;;;;;;2.60;2.30;;;;;;;9.88;75.96;95349.04;110225;1247;59723;-70
2023/01/18 07:14:04;;;;;;;2.50;2.00;;;;;;;9.88;76.00;95348.00;110148;1251;59633;-69
2023/01/18 07:16:34;;;;;;;2.30;2.10;;;;;;;9.86;76.72;95351.10;110160;1244;71271;-74
2023/01/18 07:19:03;;;;;;;3.80;2.40;;;;;;;9.81;77.34;95332.65;110193;1244;68767;-72
2023/01/18 07:21:32;;;;;;;2.50;2.10;;;;;;;9.77;77.77;95345.52;110155;1245;69874;-74
2023/01/18 07:24:01;;;;;;;2.40;2.10;;;;;;;9.73;77.69;95351.44;110080;1245;59762;-71
2023/01/18 07:26:31;;;;;;;4.70;2.30;;;;;;;9.69;78.04;95342.57;110091;1243;59692;-71
2023/01/18 07:29:00;;;;;;;3.80;2.70;;;;;;;9.66;78.28;95340.81;110125;1245;71506;-71
2023/01/18 07:31:29;;;;;;;3.90;2.90;;;;;;;9.65;78.28;95340.19;110098;1244;68616;-70
2023/01/18 07:33:58;;;;;;;5.20;2.80;;;;;;;9.63;78.21;95345.42;110033;1244;68448;-72
2023/01/18 07:36:28;;;;;;;4.40;2.70;;;;;;;9.63;78.00;95350.84;110062;1244;59684;-72
2023/01/18 07:38:57;;;;;;;3.90;2.60;;;;;;;9.62;78.67;95361.06;110106;1244;59700;-71
2023/01/18 07:41:26;;;;;;;4.20;2.80;;;;;;;9.57;79.72;95361.96;110089;1245;70274;-71
2023/01/18 07:43:58;;;;;;;3.50;3.10;;;;;;;9.50;80.57;95363.70;110098;1245;69844;-70
2023/01/18 07:46:27;;;;;;;3.90;2.50;;;;;;;9.43;80.78;95363.31;110080;1244;69302;-73
2023/01/18 07:48:56;;;;;;;3.90;3.20;;;;;;;9.40;80.37;95361.85;110190;1244;59747;-72
2023/01/18 07:51:25;;;;;;;3.80;3.30;;;;;;;9.38;80.37;95361.55;110099;1244;59612;-71
2023/01/18 07:53:54;;;;;;;5.20;3.40;;;;;;;9.35;81.01;95359.95;110093;1244;71530;-72
2023/01/18 07:56:24;;;;;;;4.10;3.70;;;;;;;9.35;80.96;95361.94;110105;1244;69843;-71
2023/01/18 07:58:53;;;;;;;6.30;4.20;;;;;;;9.34;81.22;95368.61;110103;1244;69894;-72
2023/01/18 08:01:22;;;;;;;4.70;3.50;;;;;;;9.32;81.39;95375.91;110055;1244;59737;-70
2023/01/18 08:03:53;;;;;;;4.80;3.50;;;;;;;9.30;82.08;95378.55;110121;1245;59754;-72
2023/01/18 08:06:24;;;;;;;5.00;3.70;;;;;;;9.28;82.03;95382.73;110119;1245;70607;-72
2023/01/18 08:08:55;;;;;;;4.40;3.40;;;;;;;9.25;82.52;95383.21;110097;1244;68514;-72
2023/01/18 08:11:24;;;;;;;5.40;3.80;;;;;;;9.24;82.58;95382.70;110100;1245;69895;-72
2023/01/18 08:13:53;;;;;;;4.40;3.00;;;;;;;9.22;82.86;95388.73;110078;1244;59703;-72
2023/01/18 08:16:23;;;;;;;4.80;3.60;;;;;;;9.21;82.96;95385.74;110090;1245;59621;-70
2023/01/18 08:18:52;;;;;;;6.80;4.60;;;;;;;9.18;83.67;95391.33;110093;1244;71991;-71
2023/01/18 08:21:20;;;;;;;7.90;4.80;;;;;;;9.15;83.65;95393.60;110097;1245;69799;-70
2023/01/18 08:23:52;;;;;;;29.20;15.30;;;;;;;9.11;84.33;95398.45;110074;1245;69577;-72
2023/01/18 08:26:21;;;;;;;5.10;3.90;;;;;;;9.09;84.63;95408.63;110083;1244;59824;-72
2023/01/18 08:28:50;;;;;;;6.30;4.20;;;;;;;9.07;84.59;95422.31;110087;1244;59646;-72
2023/01/18 08:31:20;;;;;;;5.40;2.90;;;;;;;9.06;84.31;95418.31;110151;1242;71976;-72
2023/01/18 08:33:51;;;;;;;4.40;2.90;;;;;;;9.05;84.21;95427.90;110103;1245;69876;-72
2023/01/18 08:36:24;;;;;;;3.90;2.80;;;;;;;9.07;84.22;95435.24;110049;1245;68315;-72
2023/01/18 08:38:58;;;;;;;3.70;3.30;;;;;;;9.08;84.49;95446.42;110070;1244;59740;-72
2023/01/18 08:41:28;;;;;;;4.50;3.10;;;;;;;9.11;85.14;95459.32;109777;1244;59699;-72
2023/01/18 08:43:58;;;;;;;5.10;3.00;;;;;;;9.11;86.87;95469.40;110120;1245;71411;-72
2023/01/18 08:46:27;;;;;;;5.70;3.90;;;;;;;9.11;88.38;95467.66;110092;1241;69834;-71
2023/01/18 08:48:58;;;;;;;4.70;3.90;;;;;;;9.07;86.79;95471.31;110068;1245;69292;-71
2023/01/18 08:51:27;;;;;;;3.90;2.80;;;;;;;9.03;87.12;95480.59;110080;1243;59665;-72
2023/01/18 08:53:57;;;;;;;4.20;3.80;;;;;;;9.02;90.03;95479.30;110182;1244;59717;-72
2023/01/18 08:56:27;;;;;;;4.90;3.70;;;;;;;8.96;94.55;95468.94;110105;1244;72040;-71
2023/01/18 08:58:56;;;;;;;;;;;;;;;8.94;93.75;95459.78;110099;1245;69793;-73
2023/01/18 09:01:25;;;;;;;4.50;3.10;;;;;;;8.96;94.10;95451.78;110079;1244;69280;-73
2023/01/18 09:03:57;;;;;;;4.60;2.80;;;;;;;9.00;94.18;95439.58;110118;1244;59694;-72
2023/01/18 09:06:30;;;;;;;6.10;3.30;;;;;;;9.06;92.58;95439.63;110104;1244;59684;-72
2023/01/18 09:09:00;;;;;;;5.00;3.50;;;;;;;9.14;94.08;95434.68;110098;1245;71678;-72
2023/01/18 09:11:29;;;;;;;9.00;7.40;;;;;;;9.25;93.32;95428.48;110090;1243;69302;-72
2023/01/18 09:13:58;;;;;;;7.70;6.90;;;;;;;9.35;95.04;95421.99;110120;1244;69588;-72
2023/01/18 09:16:30;;;;;;;10.40;8.40;;;;;;;9.56;96.82;95427.88;110098;1244;59703;-73
2023/01/18 09:19:00;;;;;;;9.80;8.30;;;;;;;9.80;96.14;95430.44;110105;1244;59750;-73
2023/01/18 09:21:28;;;;;;;7.70;6.90;;;;;;;9.96;95.08;95433.82;110218;1245;71432;-71
2023/01/18 09:23:58;;;;;;;11.50;8.30;;;;;;;10.10;94.58;95427.19;110074;1245;68885;-72
2023/01/18 09:26:29;;;;;;;18.60;13.40;;;;;;;10.32;93.77;95439.23;110069;1244;68495;-72
2023/01/18 09:28:58;;;;;;;33.80;24.80;;;;;;;11.00;93.38;95431.89;110132;1245;59665;-73
2023/01/18 09:31:28;;;;;;;32.90;23.20;;;;;;;11.61;89.35;95424.29;110106;1244;59694;-74
2023/01/18 09:33:57;;;;;;;20.00;15.70;;;;;;;11.98;86.95;95432.56;110096;1244;70555;-72
2023/01/18 09:36:51;;;;;;;13.00;9.80;;;;;;;12.16;86.42;95438.99;110109;1245;69537;-72
2023/01/18 09:39:21;;;;;;;9.40;8.20;;;;;;;12.19;85.59;95435.95;110128;1244;69302;-73
2023/01/18 09:42:02;;;;;;;9.50;7.40;;;;;;;12.15;83.83;95438.00;109867;1242;410921;-72
2023/01/18 09:44:41;;;;;;;11.30;8.10;;;;;;;12.14;83.66;95432.66;110228;1244;59678;-73
2023/01/18 09:47:22;;;;;;;8.30;7.30;;;;;;;12.70;83.02;95427.56;109951;1244;71196;-73
2023/01/18 09:49:58;;;;;;;7.30;6.40;;;;;;;13.88;79.83;95429.53;110076;1244;69552;-74
2023/01/18 09:52:33;;;;;;;4.90;4.20;;;;;;;14.96;73.95;95426.26;110172;1246;69401;-73
2023/01/18 09:55:05;;;;;;;3.50;2.80;;;;;;;16.11;69.82;95430.42;110205;1244;59994;-72
2023/01/18 09:58:08;;;;;;;3.60;2.60;;;;;;;16.99;65.61;95431.17;110229;1244;59709;-73
2023/01/18 10:00:43;;;;;;;3.60;2.40;;;;;;;17.30;60.91;95430.54;110226;1251;71394;-73
2023/01/18 10:03:14;;;;;;;3.20;2.30;;;;;;;17.17;58.22;95420.20;110106;1244;69294;-73
2023/01/18 10:06:09;;;;;;;4.30;2.40;;;;;;;17.27;55.88;95427.28;110366;1245;70279;-71
2023/01/18 10:09:00;;;;;;;4.00;2.30;;;;;;;17.51;55.43;95426.95;110205;1244;59750;-73
2023/01/18 10:11:36;;;;;;;3.30;2.20;;;;;;;17.70;54.21;95432.15;110158;1244;59621;-72
2023/01/18 10:14:27;;;;;;;3.40;2.30;;;;;;;17.86;52.53;95426.80;110263;1244;70449;-70
2023/01/18 10:17:01;;;;;;;2.70;2.00;;;;;;;17.25;53.37;95423.33;110211;1243;69077;-71
2023/01/18 10:19:32;;;;;;;3.50;1.90;;;;;;;16.58;54.00;95411.25;110099;1244;69852;-69
2023/01/18 10:22:37;;;;;;;4.50;2.20;;;;;;;15.84;55.25;95413.00;110099;1244;59748;-73
2023/01/18 10:25:30;;;;;;;3.90;2.40;;;;;;;15.23;56.58;95436.45;110118;1242;59683;-69
2023/01/18 10:28:11;;;;;;;3.30;2.00;;;;;;;14.49;57.36;95444.54;110166;1244;70681;-68
2023/01/18 10:31:30;;;;;;;3.30;1.90;;;;;;;13.96;59.20;95447.02;110136;1244;69908;-68
2023/01/18 10:34:03;;;;;;;2.80;2.30;;;;;;;13.50;61.43;95433.64;109584;1248;69832;-68
2023/01/18 10:36:40;;;;;;;3.20;2.60;;;;;;;13.19;62.62;95429.96;109559;1251;59709;-67
2023/01/18 10:39:34;;;;;;;3.10;2.30;;;;;;;13.01;63.61;95426.41;109864;1251;59792;-68
2023/01/18 10:42:16;;;;;;;2.80;2.20;;;;;;;12.98;64.27;95428.38;110113;1244;71400;-68
2023/01/18 10:44:48;;;;;;;2.80;2.00;;;;;;;12.95;64.30;95438.33;110120;1244;69022;-69
2023/01/18 10:47:18;;;;;;;5.00;3.10;;;;;;;12.88;63.96;95431.27;110155;1241;69785;-70
2023/01/18 10:49:49;;;;;;;3.90;2.40;;;;;;;12.85;64.28;95429.38;110103;1250;59683;-68
2023/01/18 10:52:30;;;;;;;3.90;2.40;;;;;;;12.72;63.19;95427.21;110160;1241;59799;-70
2023/01/18 10:55:01;;;;;;;3.30;2.30;;;;;;;12.70;63.48;95442.98;110089;1243;71381;-73
2023/01/18 10:57:42;;;;;;;2.80;1.40;;;;;;;12.69;63.43;95441.75;110112;1244;68277;-76
2023/01/18 11:00:20;;;;;;;2.60;1.80;;;;;;;12.74;62.21;95443.50;110232;1242;69367;-73
2023/01/18 11:02:52;;;;;;;1.00;0.90;;;;;;;13.02;61.53;95448.05;110092;1244;59750;-70
2023/01/18 11:05:36;;;;;;;1.20;1.00;;;;;;;13.69;58.99;95453.06;110119;1245;59804;-73
2023/01/18 11:08:30;;;;;;;1.80;0.90;;;;;;;13.98;57.94;95463.80;110102;1244;71370;-72
2023/01/18 11:11:14;;;;;;;0.90;0.80;;;;;;;14.51;56.24;95441.71;110100;1245;69234;-76
2023/01/18 11:13:48;;;;;;;0.80;0.70;;;;;;;15.49;53.96;95450.23;110085;1244;69276;-76
2023/01/18 11:16:19;;;;;;;0.90;0.50;;;;;;;16.30;51.30;95462.21;110084;1244;59741;-73
2023/01/18 11:19:16;;;;;;;0.60;0.60;;;;;;;16.64;50.24;95482.03;110090;1244;60125;-76
2023/01/18 11:21:49;;;;;;;1.00;0.70;;;;;;;16.33;50.47;95501.27;110124;1245;71393;-72
2023/01/18 11:24:25;;;;;;;1.80;0.70;;;;;;;16.04;51.34;95504.29;110105;1244;69058;-70
2023/01/18 11:27:01;;;;;;;2.10;1.10;;;;;;;15.69;52.87;95507.54;110108;1244;69431;-71
2023/01/18 11:29:34;;;;;;;1.30;0.80;;;;;;;15.17;54.16;95513.77;110102;1242;59703;-75
2023/01/18 11:32:07;;;;;;;1.60;0.90;;;;;;;14.62;55.59;95521.92;110228;1244;59684;-71
2023/01/18 11:34:45;;;;;;;1.00;0.90;;;;;;;14.21;56.94;95539.49;110084;1244;71674;-74
2023/01/18 11:37:29;;;;;;;1.20;1.10;;;;;;;14.14;57.60;95533.81;110072;1243;69302;-69
2023/01/18 11:39:57;;;;;;;2.40;1.20;;;;;;;14.29;57.73;95542.23;110060;1245;69272;-74
2023/01/18 11:42:30;;;;;;;1.70;0.90;;;;;;;14.20;57.18;95546.41;110116;1245;59701;-70
2023/01/18 11:45:31;;;;;;;2.20;1.40;;;;;;;14.11;57.97;95550.83;110100;1244;59694;-71
2023/01/18 11:48:18;;;;;;;1.30;1.10;;;;;;;13.99;58.68;95560.77;110097;1241;71851;-71
2023/01/18 11:50:53;;;;;;;2.30;1.20;;;;;;;13.82;58.71;95564.03;110107;1244;69115;-72
2023/01/18 11:53:48;;;;;;;1.70;1.30;;;;;;;13.72;58.74;95567.70;110135;1244;69259;-70
2023/01/18 11:56:39;;;;;;;1.60;1.10;;;;;;;13.57;58.79;95573.30;110096;1244;59712;-74
2023/01/18 11:59:29;;;;;;;2.40;1.70;;;;;;;13.48;58.99;95579.96;110264;1244;59713;-80
2023/01/18 12:02:37;;;;;;;1.70;1.20;;;;;;;13.47;58.76;95589.71;110119;1244;71957;-75
2023/01/18 12:05:25;;;;;;;3.30;1.20;;;;;;;13.44;59.23;95585.81;110228;1244;69292;-78
2023/01/18 12:08:22;;;;;;;2.60;1.20;;;;;;;13.74;58.46;95567.04;110072;1244;68701;-77
2023/01/18 12:11:22;;;;;;;2.10;1.10;;;;;;;13.95;58.15;95569.97;110199;1244;59749;-71
2023/01/18 12:14:04;;;;;;;1.50;1.00;;;;;;;13.86;57.80;95598.77;110204;1241;59693;-68
2023/01/18 12:17:02;;;;;;;2.30;1.40;;;;;;;13.70;58.23;95598.29;110109;1244;70439;-67
2023/01/18 12:19:51;;;;;;;2.00;1.00;;;;;;;13.56;58.33;95614.36;109989;1242;69135;-72
2023/01/18 12:22:42;;;;;;;2.00;1.10;;;;;;;13.48;59.31;95628.13;110002;1245;69094;-71
2023/01/18 12:25:19;;;;;;;1.40;1.00;;;;;;;13.38;59.36;95639.77;110127;1244;59703;-76
2023/01/18 12:27:48;;;;;;;1.40;0.90;;;;;;;13.23;60.08;95657.63;110067;1244;59694;-70
2023/01/18 12:30:32;;;;;;;2.50;1.20;;;;;;;13.03;60.56;95661.91;110114;1243;70439;-78
2023/01/18 12:33:01;;;;;;;1.70;0.90;;;;;;;12.97;61.14;95674.61;110089;1244;69421;-69